London Gatwick Airport

EGKK · Inglaterra, Reino Unido

História da METAR EGKK · Aeroporto de Londres Gatwick

Abaixo você vê METARs dos últimos dias. Selecione um ano para navegar pelos METARs mais antigos, a partir do ano 2007.

4 de dezembro de 2022

Hora Código Clima Temp. Visibilidade Tecto Vento METAR/SPECI
08:20
M
4 °C 10 km+ 1.700 ft 080° 080° 9 kt METAR EGKK 040820Z 08009KT 9999 BKN017 04/01 Q1016
07:50
M
4 °C 10 km+ 1.800 ft 090° 090° 10 kt METAR EGKK 040750Z 09010KT 9999 BKN018 04/01 Q1015
07:20
M
4 °C 10 km+ 1.700 ft 080° 080° 10 kt METAR EGKK 040720Z 08010KT 9999 BKN017 04/01 Q1015
06:50
M
4 °C 10 km+ 1.600 ft 070° 070° 11 kt METAR EGKK 040650Z 07011KT 9999 BKN016 04/02 Q1015
06:20
M
4 °C 10 km+ 1.400 ft 060° 060° 7 kt METAR EGKK 040620Z 06007KT 9999 BKN014 04/02 Q1015
05:50
M
4 °C 10 km+ 1.700 ft 060° 060° 6 kt METAR EGKK 040550Z 06006KT 9999 FEW014 BKN017 04/02 Q1015
05:20
M
4 °C 9 km 1.300 ft 050° 050° 6 kt METAR EGKK 040520Z 05006KT 9000 BKN013 04/02 Q1015
04:50
M
4 °C 10 km+ 1.200 ft 050° 050° 7 kt METAR EGKK 040450Z 05007KT 9999 BKN012 04/02 Q1015
04:20
M
4 °C 10 km+ 1.300 ft 060° 060° 7 kt METAR EGKK 040420Z 06007KT 9999 BKN013 04/02 Q1015
03:50
M
4 °C 10 km+ 1.400 ft 070° 070° 7 kt METAR EGKK 040350Z 07007KT 9999 BKN014 04/02 Q1015
03:20
M
5 °C 10 km+ 1.700 ft 060° 060° 8 kt METAR EGKK 040320Z 06008KT 9999 BKN017 05/02 Q1015
02:50
M
5 °C 10 km+ 1.700 ft 050° 050° 8 kt METAR EGKK 040250Z 05008KT 9999 BKN017 05/02 Q1015
02:20
M
5 °C 10 km+ 1.800 ft 070° 070° 7 kt METAR EGKK 040220Z 07007KT 9999 BKN018 05/01 Q1015
01:50
M
5 °C 10 km+ 2.000 ft 050° 050° 9 kt METAR EGKK 040150Z 05009KT 9999 BKN020 05/01 Q1015
01:20
M
5 °C 10 km+ 2.300 ft 040° 040° 9 kt METAR EGKK 040120Z 04009KT 9999 BKN023 05/01 Q1015
00:50
M
5 °C 10 km+ 2.200 ft 040° 040° 9 kt METAR EGKK 040050Z 04009KT 010V070 9999 BKN022 05/01 Q1015
00:20
M
5 °C 10 km+ 2.100 ft 040° 040° 10 kt METAR EGKK 040020Z 04010KT 9999 BKN021 05/01 Q1015

3 de dezembro de 2022

Hora Código Clima Temp. Visibilidade Tecto Vento METAR/SPECI
23:50
M
5 °C 10 km+ 2.300 ft 040° 040° 9 kt METAR EGKK 032350Z 04009KT 9999 BKN023 05/01 Q1016
23:20
M
5 °C 10 km+ 2.200 ft 040° 040° 10 kt METAR EGKK 032320Z 04010KT 9999 BKN022 05/02 Q1016
22:50
M
5 °C 10 km+ 2.400 ft 040° 040° 10 kt METAR EGKK 032250Z 04010KT 9999 BKN024 05/02 Q1016
22:20
M
5 °C 10 km+ 2.300 ft 040° 040° 11 kt METAR EGKK 032220Z 04011KT 9999 BKN023 05/02 Q1016
21:50
M
6 °C 10 km+ 2.400 ft 040° 040° 9 kt METAR EGKK 032150Z 04009KT 9999 FEW021 BKN024 06/02 Q1016
21:20
M
6 °C 10 km+ 2.700 ft 050° 050° 10 kt METAR EGKK 032120Z 05010KT 9999 FEW024 BKN027 06/02 Q1016
20:50
M
6 °C 10 km+ 2.200 ft 050° 050° 7 kt METAR EGKK 032050Z 05007KT 9999 BKN022 06/02 Q1016
20:20
M
5 °C 10 km+ 2.200 ft 070° 070° 3 kt METAR EGKK 032020Z 07003KT 020V100 9999 BKN022 05/03 Q1016
19:50
M
6 °C 10 km+ 2.100 ft 080° 080° 5 kt METAR EGKK 031950Z 08005KT 050V110 9999 BKN021 06/03 Q1017
19:20
M
6 °C 10 km+ 2.800 ft 080° 080° 4 kt METAR EGKK 031920Z 08004KT 040V120 9999 SCT021 BKN028 06/03 Q1017
18:50
M
6 °C 10 km+ 1.800 ft 060° 060° 6 kt METAR EGKK 031850Z 06006KT 9999 BKN018 06/03 Q1017
18:20
M
6 °C 10 km+ 2.000 ft 050° 050° 7 kt METAR EGKK 031820Z 05007KT 9999 BKN020 06/03 Q1017
17:50
M
6 °C 10 km+ 2.000 ft 060° 060° 5 kt METAR EGKK 031750Z 06005KT 9999 BKN020 06/03 Q1017
17:20
M
6 °C 10 km+ 2.100 ft 060° 060° 5 kt METAR EGKK 031720Z 06005KT 9999 SCT017 BKN021 06/03 Q1017
16:50
M
6 °C 10 km+ 1.600 ft 090° 090° 6 kt METAR EGKK 031650Z 09006KT 9999 BKN016 06/03 Q1017
16:20
M
6 °C 10 km+ 1.800 ft 070° 070° 7 kt METAR EGKK 031620Z 07007KT 9999 BKN018 06/03 Q1017
15:50
M
6 °C 10 km+ 1.800 ft 060° 060° 8 kt METAR EGKK 031550Z 06008KT 9999 BKN018 06/03 Q1017
15:20
M
6 °C 10 km+ 1.700 ft 060° 060° 8 kt METAR EGKK 031520Z 06008KT 9999 BKN017 06/04 Q1017
14:50
M
6 °C 10 km+ 1.800 ft 050° 050° 10 kt METAR EGKK 031450Z 05010KT 9999 BKN018 06/04 Q1017
14:20
M
6 °C 10 km+ 1.700 ft 080° 080° 5 kt METAR EGKK 031420Z 08005KT 9999 BKN017 06/04 Q1017
13:50
M
6 °C 10 km+ 2.600 ft 070° 070° 8 kt METAR EGKK 031350Z 07008KT 9999 SCT015 BKN026 06/04 Q1017
13:20
M
7 °C 10 km+ 1.900 ft 050° 050° 11 kt METAR EGKK 031320Z 05011KT 9999 BKN019 07/04 Q1018
12:50
V
7 °C 10 km+ - 040° 040° 10 kt METAR EGKK 031250Z 04010KT 010V110 9999 SCT017 07/04 Q1018
12:20
V
7 °C 10 km+ - 030° 030° 8 kt METAR EGKK 031220Z 03008KT 9999 SCT016 07/04 Q1018
11:50
M
7 °C 10 km+ 1.700 ft 030° 030° 10 kt METAR EGKK 031150Z 03010KT 9999 BKN017 07/04 Q1019
11:20
M
7 °C 10 km+ 2.200 ft 040° 040° 9 kt METAR EGKK 031120Z 04009KT 010V100 9999 FEW017 BKN022 07/04 Q1019
10:50
V
6 °C 10 km+ - 040° 040° 8 kt METAR EGKK 031050Z 04008KT 360V130 9999 FEW016 SCT023 06/04 Q1019
10:20
V
6 °C 10 km+ - 030° 030° 8 kt METAR EGKK 031020Z 03008KT 9999 FEW018 SCT026 06/04 Q1020
09:50
M
6 °C 10 km+ 2.700 ft 020° 020° 7 kt METAR EGKK 030950Z 02007KT 9999 FEW018 BKN027 06/03 Q1020
09:20
M
5 °C 10 km+ 2.800 ft 010° 010° 9 kt METAR EGKK 030920Z 01009KT 9999 BKN028 05/03 Q1020
08:50
V
5 °C 10 km+ - 010° 010° 9 kt METAR EGKK 030850Z 01009KT 9999 FEW025 SCT034 05/03 Q1020
08:20
V
5 °C 10 km+ - 010° 010° 9 kt METAR EGKK 030820Z 01009KT 9999 FEW024 SCT035 05/03 Q1020
07:50
M
5 °C 10 km+ 2.400 ft 030° 030° 8 kt METAR EGKK 030750Z 03008KT 9999 FEW016 BKN024 05/03 Q1021
07:20
M
5 °C 9 km 1.700 ft 040° 040° 9 kt METAR EGKK 030720Z 04009KT 9000 BKN017 05/03 Q1021
06:50
M
5 °C 10 km+ 1.800 ft 040° 040° 10 kt METAR EGKK 030650Z 04010KT 9999 FEW014 BKN018 05/03 Q1021
06:20
M
5 °C 10 km+ 1.200 ft 030° 030° 11 kt METAR EGKK 030620Z 03011KT 9999 BKN012 05/03 Q1021
05:50
M
5 °C 10 km+ 1.600 ft 030° 030° 10 kt METAR EGKK 030550Z 03010KT 9999 -RA BKN016 05/03 Q1021
05:20
M
5 °C 10 km+ 2.400 ft 030° 030° 12 kt METAR EGKK 030520Z 03012KT 9999 BKN024 05/02 Q1021
04:50
M
5 °C 10 km+ 2.000 ft 030° 030° 11 kt METAR EGKK 030450Z 03011KT 9999 BKN020 05/02 Q1022
04:20
M
5 °C 10 km+ 2.200 ft 030° 030° 14 kt METAR EGKK 030420Z 03014KT 9999 BKN022 05/02 Q1022
03:50
M
5 °C 10 km+ 2.400 ft 030° 030° 13 kt METAR EGKK 030350Z 03013KT 9999 BKN024 05/02 Q1022
03:20
M
5 °C 10 km+ 2.400 ft 030° 030° 12 kt METAR EGKK 030320Z 03012KT 9999 SCT016 BKN024 05/03 Q1022
02:50
M
5 °C 10 km+ 2.300 ft 030° 030° 12 kt METAR EGKK 030250Z 03012KT 9999 SCT015 BKN023 05/03 Q1022
02:20
M
5 °C 10 km+ 2.500 ft 020° 020° 13 kt METAR EGKK 030220Z 02013KT 9999 SCT017 BKN025 05/03 Q1022
01:50
M
5 °C 10 km+ 2.900 ft 030° 030° 12 kt METAR EGKK 030150Z 03012KT 9999 FEW018 BKN029 05/03 Q1022
01:20
M
5 °C 10 km+ 2.900 ft 030° 030° 13 kt METAR EGKK 030120Z 03013KT 9999 FEW023 BKN029 05/03 Q1022
00:50
M
5 °C 10 km+ 2.900 ft 030° 030° 10 kt METAR EGKK 030050Z 03010KT 9999 FEW019 BKN029 05/03 Q1022
00:20
M
5 °C 10 km+ 2.900 ft 030° 030° 9 kt METAR EGKK 030020Z 03009KT 9999 FEW015 SCT024 BKN029 05/03 Q1023

2 de dezembro de 2022

Hora Código Clima Temp. Visibilidade Tecto Vento METAR/SPECI
23:50
M
5 °C 10 km+ 2.400 ft 030° 030° 9 kt METAR EGKK 022350Z 03009KT 9999 -RA FEW015 BKN024 05/03 Q1023
23:20
V
5 °C 10 km+ 3.800 ft 030° 030° 9 kt METAR EGKK 022320Z 03009KT 9999 -RA BKN038 05/03 Q1023
22:50
M
5 °C 10 km+ 1.000 ft 040° 040° 10 kt METAR EGKK 022250Z 04010KT 9999 -RA BKN010 BKN018 05/04 Q1023
22:20
V
5 °C 10 km+ - 030° 030° 12 kt METAR EGKK 022220Z 03012KT 9999 -RA SCT015 SCT020 05/03 Q1023
21:50
V
5 °C 10 km+ - 050° 050° 11 kt METAR EGKK 022150Z 05011KT 9999 -RA SCT015 SCT019 05/03 Q1023
21:20
M
6 °C 10 km+ 1.600 ft 030° 030° 12 kt METAR EGKK 022120Z 03012KT 9999 -RA BKN016 06/03 Q1023
20:50
M
6 °C 10 km+ 1.700 ft 030° 030° 10 kt METAR EGKK 022050Z 03010KT 350V120 9999 BKN017 06/03 Q1023
20:20
M
6 °C 10 km+ 1.800 ft 030° 030° 13 kt METAR EGKK 022020Z 03013KT 9999 -RA BKN018 06/04 Q1023
19:50
V
6 °C 10 km+ - 030° 030° 11 kt METAR EGKK 021950Z 03011KT 9999 SCT018 SCT026 06/04 Q1023
19:20
V
6 °C 10 km+ - 020° 020° 10 kt METAR EGKK 021920Z 02010KT 9999 FEW017 SCT025 06/04 Q1023
18:50
V
6 °C 10 km+ - 020° 020° 8 kt METAR EGKK 021850Z 02008KT 9999 FEW016 SCT020 06/04 Q1023
18:20
M
6 °C 10 km+ 2.400 ft 030° 030° 6 kt METAR EGKK 021820Z 03006KT 9999 -RA BKN024 06/04 Q1024
17:50
V
5 °C 10 km+ - 010° 010° 6 kt METAR EGKK 021750Z 01006KT 9999 FEW021 05/04 Q1024
17:20
V
5 °C 10 km+ - 020° 020° 7 kt METAR EGKK 021720Z 02007KT 9999 FEW029 05/04 Q1024
16:50
V
6 °C 10 km+ - 020° 020° 7 kt METAR EGKK 021650Z 02007KT 9999 FEW039 06/04 Q1024
16:20
V
6 °C 10 km+ - 020° 020° 7 kt METAR EGKK 021620Z 02007KT 9999 FEW021 06/04 Q1024
15:50
V
6 °C 10 km+ - 030° 030° 7 kt METAR EGKK 021550Z 03007KT 9999 FEW024 06/04 Q1023
15:20
V
7 °C 10 km+ - 040° 040° 8 kt METAR EGKK 021520Z 04008KT 360V060 9999 -RA SCT015 07/05 Q1023
14:50
V
7 °C 10 km+ - 020° 020° 7 kt METAR EGKK 021450Z 02007KT 9999 SCT018 07/05 Q1023
14:20
V
8 °C 10 km+ - 010° 010° 8 kt METAR EGKK 021420Z 01008KT 350V070 9999 FEW018 08/05 Q1023
13:50
V
8 °C 10 km+ - 010° 010° 8 kt METAR EGKK 021350Z 01008KT 9999 SCT022 08/05 Q1023
13:20
V
8 °C 10 km+ - 020° 020° 6 kt METAR EGKK 021320Z 02006KT 350V060 9999 SCT035 08/05 Q1024
12:50
V
7 °C 10 km+ - 010° 010° 5 kt METAR EGKK 021250Z 01005KT 350V100 9999 SCT032 07/05 Q1024
12:20
V
7 °C 10 km+ - 010° 010° 6 kt METAR EGKK 021220Z 01006KT 320V060 9999 FEW013 SCT030 07/05 Q1024
11:50
V
7 °C 10 km+ - 020° 020° 7 kt METAR EGKK 021150Z 02007KT 340V100 9999 SCT017 07/05 Q1024
11:20
V
7 °C 10 km+ - 020° 020° 7 kt METAR EGKK 021120Z 02007KT 330V150 9999 FEW013 SCT040 07/05 Q1025
10:50
V
6 °C 10 km+ - 010° 010° 8 kt METAR EGKK 021050Z 01008KT 9999 SCT010 06/05 Q1025
10:20
V
6 °C 10 km+ - 010° 010° 7 kt METAR EGKK 021020Z 01007KT 9999 SCT009 06/05 Q1025
09:50
V
6 °C 10 km+ - Var Var 6 kt METAR EGKK 020950Z VRB06KT 9999 SCT009 06/04 Q1025
09:20
V
5 °C 10 km+ - 020° 020° 7 kt METAR EGKK 020920Z 02007KT 9999 SCT009 05/04 Q1025
08:50
I
5 °C 9 km 900 ft 360° 360° 5 kt METAR EGKK 020850Z 36005KT 330V040 9000 BKN009 05/04 Q1025
08:20
I
5 °C 8 km 700 ft 310° 310° 4 kt METAR EGKK 020820Z 31004KT 230V030 8000 BKN007 05/04 Q1025
07:50
I
5 °C 8 km 700 ft 320° 320° 4 kt METAR EGKK 020750Z 32004KT 280V010 8000 BKN007 05/04 Q1025
07:20
L
5 °C 8 km 400 ft Var Var 7 kt METAR EGKK 020720Z VRB07KT 8000 BKN004 05/04 Q1025
06:50
L
5 °C 9 km 400 ft 350° 350° 6 kt METAR EGKK 020650Z 35006KT 290V010 9000 BKN004 05/04 Q1025
06:20
L
5 °C 7 km 400 ft 360° 360° 7 kt METAR EGKK 020620Z 36007KT 7000 BKN004 05/04 Q1025
05:50
L
5 °C 7 km 300 ft 350° 350° 7 kt METAR EGKK 020550Z 35007KT 7000 BKN003 05/04 Q1025
05:20
L
5 °C 6 km 300 ft 350° 350° 6 kt METAR EGKK 020520Z 35006KT 6000 OVC003 05/04 Q1025
04:50
L
5 °C 6 km 300 ft 360° 360° 6 kt METAR EGKK 020450Z 36006KT 6000 OVC003 05/05 Q1025
04:20
L
5 °C 5 km 300 ft 350° 350° 5 kt METAR EGKK 020420Z 35005KT 5000 BR OVC003 05/05 Q1026
03:50
L
5 °C 3,9 km 200 ft 360° 360° 5 kt METAR EGKK 020350Z 36005KT 330V040 3900 BR OVC002 05/05 Q1026
03:20
L
5 °C 4,6 km 300 ft 010° 010° 8 kt METAR EGKK 020320Z 01008KT 4600 BR OVC003 05/05 Q1026
02:50
L
5 °C 5 km 300 ft 360° 360° 6 kt METAR EGKK 020250Z 36006KT 5000 BR BKN003 05/05 Q1026
02:20
L
6 °C 5 km 300 ft 010° 010° 7 kt METAR EGKK 020220Z 01007KT 5000 BR BKN003 06/05 Q1026
01:50
L
6 °C 4 km 300 ft 010° 010° 5 kt METAR EGKK 020150Z 01005KT 340V100 4000 BR OVC003 06/05 Q1026
01:20
L
6 °C 3 km 300 ft 020° 020° 7 kt METAR EGKK 020120Z 02007KT 3000 BR OVC003 06/05 Q1027
00:50
L
6 °C 2,2 km 200 ft 010° 010° 6 kt METAR EGKK 020050Z 01006KT 340V040 2200 BR OVC002 06/05 Q1027
00:20
L
6 °C 2,2 km 200 ft 360° 360° 5 kt METAR EGKK 020020Z 36005KT 2200 BR OVC002 06/05 Q1027

1 de dezembro de 2022

Hora Código Clima Temp. Visibilidade Tecto Vento METAR/SPECI
23:50
L
6 °C 3 km 200 ft 340° 340° 4 kt METAR EGKK 012350Z 34004KT 3000 BR OVC002 06/05 Q1027
23:20
L
6 °C 3,6 km 200 ft 360° 360° 5 kt METAR EGKK 012320Z 36005KT 3600 BR OVC002 06/05 Q1027
22:50
L
6 °C 4,3 km 400 ft 360° 360° 4 kt METAR EGKK 012250Z 36004KT 4300 BR OVC004 06/05 Q1028
22:20
L
6 °C 4,6 km 400 ft 350° 350° 5 kt METAR EGKK 012220Z 35005KT 320V120 4600 HZ BKN004 06/05 Q1028
21:50
L
6 °C 4,5 km 400 ft 330° 330° 5 kt METAR EGKK 012150Z 33005KT 4500 BR BKN004 06/05 Q1028
21:20
L
6 °C 5 km 400 ft 340° 340° 4 kt METAR EGKK 012120Z 34004KT 5000 BR BKN004 06/05 Q1028
20:50
I
6 °C 4,5 km 500 ft 350° 350° 7 kt METAR EGKK 012050Z 35007KT 4500 BR BKN005 06/05 Q1028
20:20
L
6 °C 5 km 400 ft Var Var 5 kt METAR EGKK 012020Z VRB05KT 5000 HZ BKN004 06/05 Q1028
19:50
L
6 °C 4,5 km 300 ft 350° 350° 4 kt METAR EGKK 011950Z 35004KT 310V040 4500 BR BKN003 06/05 Q1028
19:20
L
6 °C 4,5 km 300 ft 010° 010° 3 kt METAR EGKK 011920Z 01003KT 340V040 4500 BR BKN003 06/05 Q1028
18:50
L
6 °C 4 km 300 ft 350° 350° 6 kt METAR EGKK 011850Z 35006KT 320V030 4000 BR BKN003 06/06 Q1028
18:20
L
6 °C 3 km 300 ft 350° 350° 5 kt METAR EGKK 011820Z 35005KT 310V020 3000 BR BKN003 06/05 Q1028
17:50
L
5 °C 900 m 200 ft 360° 360° 6 kt METAR EGKK 011750Z 36006KT 0900 R08R/P1500N FG OVC002 05/05 Q1028
17:20
L
5 °C 300 m 100 ft 310° 310° 5 kt METAR EGKK 011720Z 31005KT 0300 R08R/0900N FG OVC001 05/05 Q1028
16:50
L
5 °C 600 m 100 ft 320° 320° 4 kt METAR EGKK 011650Z 32004KT 0600 R08R/P1500N FG BKN001 05/04 Q1027
16:20
L
5 °C 4 km 200 ft 320° 320° 6 kt METAR EGKK 011620Z 32006KT 4000 1500W PRFG BR BKN002 05/05 Q1028
15:50
I
6 °C 4,8 km - 300° 300° 6 kt METAR EGKK 011550Z 30006KT 200V330 4800 1300W R08R/P1500N HZ FEW002 SCT035 06/05 Q1028
15:20
V
8 °C 10 km+ - 020° 020° 6 kt METAR EGKK 011520Z 02006KT 340V130 9999 FEW032 08/05 Q1028
14:50
V
9 °C 10 km+ - 330° 330° 5 kt METAR EGKK 011450Z 33005KT 9999 FEW031 09/06 Q1028
14:20
V
9 °C 10 km+ - Var Var 5 - 17 kt METAR EGKK 011420Z VRB05G17KT 9999 FEW035 09/05 Q1028
13:50
V
9 °C 10 km+ - 020° 020° 5 kt METAR EGKK 011350Z 02005KT 330V090 9999 FEW037 09/05 Q1028
13:20
V
9 °C 10 km+ - 020° 020° 6 kt METAR EGKK 011320Z 02006KT 9999 FEW008 09/05 Q1028
12:50
V
9 °C 10 km+ - 030° 030° 5 kt METAR EGKK 011250Z 03005KT 350V070 9999 FEW018 09/05 Q1028
12:20
V
9 °C 10 km+ - 040° 040° 6 kt METAR EGKK 011220Z 04006KT 010V080 9999 FEW021 09/05 Q1028
11:50
V
8 °C 10 km+ - Var Var 5 kt METAR EGKK 011150Z VRB05KT 9999 FEW012 SCT044 08/06 Q1029
11:20
V
8 °C 10 km+ - 010° 010° 5 kt METAR EGKK 011120Z 01005KT 340V100 9999 FEW006 SCT045 08/05 Q1029
10:50
M
8 °C 6 km - Var Var 4 kt METAR EGKK 011050Z VRB04KT 6000 FEW004 SCT045 08/05 Q1029
10:20
M
7 °C 5 km - Var Var 4 kt METAR EGKK 011020Z VRB04KT 5000 HZ FEW005 07/05 Q1029
09:50
M
6 °C 6 km - 330° 330° 4 kt METAR EGKK 010950Z 33004KT 300V020 6000 VCFG FEW003 06/05 Q1029

Nós e terceiros acompanhamos seu comportamento na internet em nosso site com cookies. Se você continuar, nós assumimos que você concorda com nosso política de cookies.